sensor_id;sensor_type;location;lat;lon;timestamp;P1;durP1;ratioP1;P2;durP2;ratioP2
42200;SDS011;27869;51.442;7.540;2022-08-25T00:01:49;12.45;;;2.80;;
42200;SDS011;27869;51.442;7.540;2022-08-25T00:04:18;9.60;;;2.45;;
42200;SDS011;27869;51.442;7.540;2022-08-25T00:06:46;10.82;;;2.75;;
42200;SDS011;27869;51.442;7.540;2022-08-25T00:09:13;11.00;;;2.95;;
42200;SDS011;27869;51.442;7.540;2022-08-25T00:11:42;9.82;;;3.08;;
42200;SDS011;27869;51.442;7.540;2022-08-25T00:14:11;11.38;;;3.05;;
42200;SDS011;27869;51.442;7.540;2022-08-25T00:16:41;9.30;;;2.92;;
42200;SDS011;27869;51.442;7.540;2022-08-25T00:19:11;10.02;;;2.63;;
42200;SDS011;27869;51.442;7.540;2022-08-25T00:21:40;11.18;;;2.92;;
42200;SDS011;27869;51.442;7.540;2022-08-25T00:24:08;14.43;;;2.88;;
42200;SDS011;27869;51.442;7.540;2022-08-25T00:26:37;9.02;;;2.80;;
42200;SDS011;27869;51.442;7.540;2022-08-25T00:29:06;11.02;;;3.08;;
42200;SDS011;27869;51.442;7.540;2022-08-25T00:31:33;10.48;;;2.90;;
42200;SDS011;27869;51.442;7.540;2022-08-25T00:34:02;8.45;;;2.75;;
42200;SDS011;27869;51.442;7.540;2022-08-25T00:36:30;11.57;;;2.72;;
42200;SDS011;27869;51.442;7.540;2022-08-25T00:38:57;12.52;;;3.08;;
42200;SDS011;27869;51.442;7.540;2022-08-25T00:41:24;10.18;;;2.55;;
42200;SDS011;27869;51.442;7.540;2022-08-25T00:43:52;12.18;;;2.90;;
42200;SDS011;27869;51.442;7.540;2022-08-25T00:46:21;9.52;;;2.70;;
42200;SDS011;27869;51.442;7.540;2022-08-25T00:48:52;11.85;;;2.72;;
42200;SDS011;27869;51.442;7.540;2022-08-25T00:51:27;9.40;;;2.72;;
42200;SDS011;27869;51.442;7.540;2022-08-25T00:53:58;10.35;;;3.08;;
42200;SDS011;27869;51.442;7.540;2022-08-25T00:56:26;11.05;;;2.70;;
42200;SDS011;27869;51.442;7.540;2022-08-25T00:58:54;9.57;;;2.58;;
42200;SDS011;27869;51.442;7.540;2022-08-25T01:01:22;12.27;;;2.90;;
42200;SDS011;27869;51.442;7.540;2022-08-25T01:03:50;11.77;;;2.80;;
42200;SDS011;27869;51.442;7.540;2022-08-25T01:06:17;11.25;;;2.83;;
42200;SDS011;27869;51.442;7.540;2022-08-25T01:08:46;10.00;;;2.90;;
42200;SDS011;27869;51.442;7.540;2022-08-25T01:11:14;9.68;;;2.58;;
42200;SDS011;27869;51.442;7.540;2022-08-25T01:13:41;8.00;;;2.50;;
42200;SDS011;27869;51.442;7.540;2022-08-25T01:16:12;10.73;;;3.45;;
42200;SDS011;27869;51.442;7.540;2022-08-25T01:18:44;9.55;;;2.63;;
42200;SDS011;27869;51.442;7.540;2022-08-25T01:21:16;11.32;;;2.85;;
42200;SDS011;27869;51.442;7.540;2022-08-25T01:23:44;9.40;;;2.60;;
42200;SDS011;27869;51.442;7.540;2022-08-25T01:26:13;8.65;;;2.65;;
42200;SDS011;27869;51.442;7.540;2022-08-25T01:28:42;8.95;;;2.72;;
42200;SDS011;27869;51.442;7.540;2022-08-25T01:31:24;10.05;;;2.70;;
42200;SDS011;27869;51.442;7.540;2022-08-25T01:33:53;9.82;;;2.60;;
42200;SDS011;27869;51.442;7.540;2022-08-25T01:36:22;10.68;;;2.72;;
42200;SDS011;27869;51.442;7.540;2022-08-25T01:38:50;9.60;;;2.90;;
42200;SDS011;27869;51.442;7.540;2022-08-25T01:41:18;8.25;;;2.30;;
42200;SDS011;27869;51.442;7.540;2022-08-25T01:43:51;10.70;;;2.50;;
42200;SDS011;27869;51.442;7.540;2022-08-25T01:46:18;11.63;;;2.83;;
42200;SDS011;27869;51.442;7.540;2022-08-25T01:48:45;10.68;;;2.75;;
42200;SDS011;27869;51.442;7.540;2022-08-25T01:51:13;11.15;;;2.83;;
42200;SDS011;27869;51.442;7.540;2022-08-25T01:53:42;12.13;;;2.80;;
42200;SDS011;27869;51.442;7.540;2022-08-25T01:56:10;8.73;;;2.60;;
42200;SDS011;27869;51.442;7.540;2022-08-25T01:58:39;9.45;;;2.53;;
42200;SDS011;27869;51.442;7.540;2022-08-25T02:01:08;8.15;;;2.35;;
42200;SDS011;27869;51.442;7.540;2022-08-25T02:03:38;10.98;;;3.00;;
42200;SDS011;27869;51.442;7.540;2022-08-25T02:06:07;12.38;;;2.70;;
42200;SDS011;27869;51.442;7.540;2022-08-25T02:08:35;8.43;;;2.65;;
42200;SDS011;27869;51.442;7.540;2022-08-25T02:11:04;8.57;;;2.53;;
42200;SDS011;27869;51.442;7.540;2022-08-25T02:13:36;8.98;;;2.53;;
42200;SDS011;27869;51.442;7.540;2022-08-25T02:16:03;12.00;;;2.78;;
42200;SDS011;27869;51.442;7.540;2022-08-25T02:18:31;12.10;;;2.53;;
42200;SDS011;27869;51.442;7.540;2022-08-25T02:20:58;10.77;;;2.75;;
42200;SDS011;27869;51.442;7.540;2022-08-25T02:23:25;11.40;;;2.58;;
42200;SDS011;27869;51.442;7.540;2022-08-25T02:25:52;8.40;;;2.50;;
42200;SDS011;27869;51.442;7.540;2022-08-25T02:28:20;10.75;;;2.83;;
42200;SDS011;27869;51.442;7.540;2022-08-25T02:30:47;9.57;;;2.78;;
42200;SDS011;27869;51.442;7.540;2022-08-25T02:33:16;9.95;;;2.53;;
42200;SDS011;27869;51.442;7.540;2022-08-25T02:35:43;7.07;;;2.17;;
42200;SDS011;27869;51.442;7.540;2022-08-25T02:38:10;8.75;;;2.72;;
42200;SDS011;27869;51.442;7.540;2022-08-25T02:40:37;10.20;;;3.13;;
42200;SDS011;27869;51.442;7.540;2022-08-25T02:43:05;12.13;;;3.10;;
42200;SDS011;27869;51.442;7.540;2022-08-25T02:45:33;11.30;;;3.00;;
42200;SDS011;27869;51.442;7.540;2022-08-25T02:48:00;11.65;;;2.58;;
42200;SDS011;27869;51.442;7.540;2022-08-25T02:50:28;11.63;;;3.03;;
42200;SDS011;27869;51.442;7.540;2022-08-25T02:52:55;9.43;;;2.80;;
42200;SDS011;27869;51.442;7.540;2022-08-25T02:55:22;9.45;;;2.78;;
42200;SDS011;27869;51.442;7.540;2022-08-25T02:57:49;12.65;;;3.20;;
42200;SDS011;27869;51.442;7.540;2022-08-25T03:00:17;12.27;;;2.85;;
42200;SDS011;27869;51.442;7.540;2022-08-25T03:02:45;9.43;;;2.78;;
42200;SDS011;27869;51.442;7.540;2022-08-25T03:05:13;10.63;;;3.05;;
42200;SDS011;27869;51.442;7.540;2022-08-25T03:07:40;9.02;;;2.75;;
42200;SDS011;27869;51.442;7.540;2022-08-25T03:10:09;8.82;;;2.83;;
42200;SDS011;27869;51.442;7.540;2022-08-25T03:12:38;9.20;;;2.95;;
42200;SDS011;27869;51.442;7.540;2022-08-25T03:15:06;9.73;;;2.80;;
42200;SDS011;27869;51.442;7.540;2022-08-25T03:17:34;10.35;;;2.72;;
42200;SDS011;27869;51.442;7.540;2022-08-25T03:20:03;12.68;;;2.83;;
42200;SDS011;27869;51.442;7.540;2022-08-25T03:22:31;12.82;;;2.75;;
42200;SDS011;27869;51.442;7.540;2022-08-25T03:24:59;10.45;;;2.50;;
42200;SDS011;27869;51.442;7.540;2022-08-25T03:27:41;9.80;;;2.85;;
42200;SDS011;27869;51.442;7.540;2022-08-25T03:30:08;11.43;;;3.15;;
42200;SDS011;27869;51.442;7.540;2022-08-25T03:32:36;10.57;;;2.88;;
42200;SDS011;27869;51.442;7.540;2022-08-25T03:35:05;12.77;;;2.80;;
42200;SDS011;27869;51.442;7.540;2022-08-25T03:37:33;10.13;;;3.03;;
42200;SDS011;27869;51.442;7.540;2022-08-25T03:40:00;11.02;;;3.15;;
42200;SDS011;27869;51.442;7.540;2022-08-25T03:42:29;10.05;;;3.00;;
42200;SDS011;27869;51.442;7.540;2022-08-25T03:44:55;14.57;;;3.22;;
42200;SDS011;27869;51.442;7.540;2022-08-25T03:47:23;12.65;;;3.10;;
42200;SDS011;27869;51.442;7.540;2022-08-25T03:49:53;9.60;;;3.00;;
42200;SDS011;27869;51.442;7.540;2022-08-25T03:52:22;9.55;;;3.08;;
42200;SDS011;27869;51.442;7.540;2022-08-25T03:54:49;13.60;;;3.42;;
42200;SDS011;27869;51.442;7.540;2022-08-25T03:57:16;12.32;;;3.13;;
42200;SDS011;27869;51.442;7.540;2022-08-25T03:59:44;9.70;;;2.63;;
42200;SDS011;27869;51.442;7.540;2022-08-25T04:02:11;10.77;;;2.95;;
42200;SDS011;27869;51.442;7.540;2022-08-25T04:04:40;11.40;;;3.03;;
42200;SDS011;27869;51.442;7.540;2022-08-25T04:07:07;11.88;;;3.20;;
42200;SDS011;27869;51.442;7.540;2022-08-25T04:09:35;10.18;;;3.20;;
42200;SDS011;27869;51.442;7.540;2022-08-25T04:12:02;13.32;;;3.25;;
42200;SDS011;27869;51.442;7.540;2022-08-25T04:14:30;11.48;;;3.08;;
42200;SDS011;27869;51.442;7.540;2022-08-25T04:16:57;8.80;;;2.72;;
42200;SDS011;27869;51.442;7.540;2022-08-25T04:19:24;11.45;;;3.50;;
42200;SDS011;27869;51.442;7.540;2022-08-25T04:21:51;12.55;;;3.45;;
42200;SDS011;27869;51.442;7.540;2022-08-25T04:24:18;13.25;;;3.03;;
42200;SDS011;27869;51.442;7.540;2022-08-25T04:26:48;11.52;;;3.03;;
42200;SDS011;27869;51.442;7.540;2022-08-25T04:29:17;13.85;;;3.47;;
42200;SDS011;27869;51.442;7.540;2022-08-25T04:31:46;11.30;;;3.35;;
42200;SDS011;27869;51.442;7.540;2022-08-25T04:34:14;12.45;;;3.63;;
42200;SDS011;27869;51.442;7.540;2022-08-25T04:36:42;12.27;;;3.28;;
42200;SDS011;27869;51.442;7.540;2022-08-25T04:39:09;13.75;;;3.42;;
42200;SDS011;27869;51.442;7.540;2022-08-25T04:41:36;12.27;;;4.10;;
42200;SDS011;27869;51.442;7.540;2022-08-25T04:44:05;11.20;;;3.53;;
42200;SDS011;27869;51.442;7.540;2022-08-25T04:46:32;14.80;;;3.80;;
42200;SDS011;27869;51.442;7.540;2022-08-25T04:49:00;12.05;;;3.20;;
42200;SDS011;27869;51.442;7.540;2022-08-25T04:51:29;12.82;;;3.42;;
42200;SDS011;27869;51.442;7.540;2022-08-25T04:53:57;10.77;;;3.40;;
42200;SDS011;27869;51.442;7.540;2022-08-25T04:56:26;11.20;;;3.20;;
42200;SDS011;27869;51.442;7.540;2022-08-25T04:58:54;9.18;;;3.13;;
42200;SDS011;27869;51.442;7.540;2022-08-25T05:01:23;13.90;;;3.50;;
42200;SDS011;27869;51.442;7.540;2022-08-25T05:03:53;13.25;;;3.92;;
42200;SDS011;27869;51.442;7.540;2022-08-25T05:06:23;11.00;;;3.33;;
42200;SDS011;27869;51.442;7.540;2022-08-25T05:08:50;12.32;;;3.35;;
42200;SDS011;27869;51.442;7.540;2022-08-25T05:11:18;10.70;;;3.53;;
42200;SDS011;27869;51.442;7.540;2022-08-25T05:13:46;12.07;;;3.40;;
42200;SDS011;27869;51.442;7.540;2022-08-25T05:16:14;11.77;;;3.65;;
42200;SDS011;27869;51.442;7.540;2022-08-25T05:18:43;11.77;;;3.30;;
42200;SDS011;27869;51.442;7.540;2022-08-25T05:21:12;12.55;;;3.05;;
42200;SDS011;27869;51.442;7.540;2022-08-25T05:23:41;12.05;;;4.00;;
42200;SDS011;27869;51.442;7.540;2022-08-25T05:26:09;12.10;;;3.55;;
42200;SDS011;27869;51.442;7.540;2022-08-25T05:28:38;13.20;;;3.20;;
42200;SDS011;27869;51.442;7.540;2022-08-25T05:31:07;10.85;;;3.30;;
42200;SDS011;27869;51.442;7.540;2022-08-25T05:33:35;11.75;;;3.38;;
42200;SDS011;27869;51.442;7.540;2022-08-25T05:36:04;9.90;;;3.88;;
42200;SDS011;27869;51.442;7.540;2022-08-25T05:38:32;13.90;;;3.40;;
42200;SDS011;27869;51.442;7.540;2022-08-25T05:41:00;12.15;;;3.38;;
42200;SDS011;27869;51.442;7.540;2022-08-25T05:43:29;12.70;;;3.35;;
42200;SDS011;27869;51.442;7.540;2022-08-25T05:45:56;10.55;;;3.47;;
42200;SDS011;27869;51.442;7.540;2022-08-25T05:48:25;11.77;;;3.70;;
42200;SDS011;27869;51.442;7.540;2022-08-25T05:50:53;10.93;;;3.70;;
42200;SDS011;27869;51.442;7.540;2022-08-25T05:53:23;14.57;;;3.80;;
42200;SDS011;27869;51.442;7.540;2022-08-25T05:55:51;10.55;;;3.60;;
42200;SDS011;27869;51.442;7.540;2022-08-25T06:00:47;20.17;;;4.93;;
42200;SDS011;27869;51.442;7.540;2022-08-25T06:03:14;14.32;;;4.72;;
42200;SDS011;27869;51.442;7.540;2022-08-25T06:05:40;26.27;;;5.90;;
42200;SDS011;27869;51.442;7.540;2022-08-25T06:08:07;16.95;;;4.88;;
42200;SDS011;27869;51.442;7.540;2022-08-25T06:10:35;20.77;;;6.30;;
42200;SDS011;27869;51.442;7.540;2022-08-25T06:13:03;18.08;;;5.32;;
42200;SDS011;27869;51.442;7.540;2022-08-25T06:15:30;17.63;;;5.10;;
42200;SDS011;27869;51.442;7.540;2022-08-25T06:17:57;17.25;;;4.18;;
42200;SDS011;27869;51.442;7.540;2022-08-25T06:20:27;15.73;;;4.38;;
42200;SDS011;27869;51.442;7.540;2022-08-25T06:22:55;16.65;;;4.53;;
42200;SDS011;27869;51.442;7.540;2022-08-25T06:25:24;16.08;;;4.60;;
42200;SDS011;27869;51.442;7.540;2022-08-25T06:27:53;21.67;;;4.47;;
42200;SDS011;27869;51.442;7.540;2022-08-25T06:30:21;36.30;;;9.05;;
42200;SDS011;27869;51.442;7.540;2022-08-25T06:32:49;20.20;;;4.95;;
42200;SDS011;27869;51.442;7.540;2022-08-25T06:35:17;16.90;;;4.45;;
42200;SDS011;27869;51.442;7.540;2022-08-25T06:37:45;18.65;;;5.25;;
42200;SDS011;27869;51.442;7.540;2022-08-25T06:40:13;23.65;;;5.30;;
42200;SDS011;27869;51.442;7.540;2022-08-25T06:42:41;21.85;;;5.28;;
42200;SDS011;27869;51.442;7.540;2022-08-25T06:45:09;27.35;;;5.82;;
42200;SDS011;27869;51.442;7.540;2022-08-25T06:50:04;23.20;;;5.35;;
42200;SDS011;27869;51.442;7.540;2022-08-25T06:52:32;19.00;;;5.18;;
42200;SDS011;27869;51.442;7.540;2022-08-25T06:54:59;21.48;;;5.75;;
42200;SDS011;27869;51.442;7.540;2022-08-25T06:57:26;18.23;;;5.18;;
42200;SDS011;27869;51.442;7.540;2022-08-25T06:59:53;15.95;;;4.65;;
42200;SDS011;27869;51.442;7.540;2022-08-25T07:02:22;19.90;;;5.10;;
42200;SDS011;27869;51.442;7.540;2022-08-25T07:04:49;18.75;;;4.80;;
42200;SDS011;27869;51.442;7.540;2022-08-25T07:07:17;20.55;;;4.40;;
42200;SDS011;27869;51.442;7.540;2022-08-25T07:09:45;16.08;;;3.90;;
42200;SDS011;27869;51.442;7.540;2022-08-25T07:12:12;20.25;;;4.88;;
42200;SDS011;27869;51.442;7.540;2022-08-25T07:14:39;16.67;;;4.50;;
42200;SDS011;27869;51.442;7.540;2022-08-25T07:17:07;14.32;;;4.40;;
42200;SDS011;27869;51.442;7.540;2022-08-25T07:19:36;18.65;;;5.68;;
42200;SDS011;27869;51.442;7.540;2022-08-25T07:22:03;19.05;;;5.53;;
42200;SDS011;27869;51.442;7.540;2022-08-25T07:24:30;14.70;;;4.30;;
42200;SDS011;27869;51.442;7.540;2022-08-25T07:26:57;14.02;;;3.97;;
42200;SDS011;27869;51.442;7.540;2022-08-25T07:29:25;12.80;;;4.00;;
42200;SDS011;27869;51.442;7.540;2022-08-25T07:31:54;12.48;;;3.95;;
42200;SDS011;27869;51.442;7.540;2022-08-25T07:34:21;16.20;;;4.75;;
42200;SDS011;27869;51.442;7.540;2022-08-25T07:37:06;13.05;;;3.72;;
42200;SDS011;27869;51.442;7.540;2022-08-25T07:39:34;14.30;;;3.90;;
42200;SDS011;27869;51.442;7.540;2022-08-25T07:42:01;12.75;;;3.83;;
42200;SDS011;27869;51.442;7.540;2022-08-25T07:44:28;13.23;;;3.65;;
42200;SDS011;27869;51.442;7.540;2022-08-25T07:46:56;12.02;;;3.45;;
42200;SDS011;27869;51.442;7.540;2022-08-25T07:49:24;14.20;;;4.03;;
42200;SDS011;27869;51.442;7.540;2022-08-25T07:51:53;13.05;;;3.60;;
42200;SDS011;27869;51.442;7.540;2022-08-25T07:54:21;11.57;;;3.70;;
42200;SDS011;27869;51.442;7.540;2022-08-25T07:56:51;13.73;;;3.80;;
42200;SDS011;27869;51.442;7.540;2022-08-25T07:59:18;12.48;;;4.07;;
42200;SDS011;27869;51.442;7.540;2022-08-25T08:01:45;11.30;;;4.00;;
42200;SDS011;27869;51.442;7.540;2022-08-25T08:04:12;11.10;;;4.10;;
42200;SDS011;27869;51.442;7.540;2022-08-25T08:06:39;14.20;;;4.00;;
42200;SDS011;27869;51.442;7.540;2022-08-25T08:09:06;12.93;;;4.30;;
42200;SDS011;27869;51.442;7.540;2022-08-25T08:11:34;12.45;;;4.10;;
42200;SDS011;27869;51.442;7.540;2022-08-25T08:14:05;12.60;;;4.10;;
42200;SDS011;27869;51.442;7.540;2022-08-25T08:16:32;13.27;;;4.30;;
42200;SDS011;27869;51.442;7.540;2022-08-25T08:19:00;13.30;;;4.00;;
42200;SDS011;27869;51.442;7.540;2022-08-25T08:21:28;11.25;;;3.95;;
42200;SDS011;27869;51.442;7.540;2022-08-25T08:23:58;12.15;;;3.90;;
42200;SDS011;27869;51.442;7.540;2022-08-25T08:26:26;12.23;;;4.38;;
42200;SDS011;27869;51.442;7.540;2022-08-25T08:28:54;16.42;;;4.80;;
42200;SDS011;27869;51.442;7.540;2022-08-25T08:31:22;17.85;;;4.57;;
42200;SDS011;27869;51.442;7.540;2022-08-25T08:33:51;12.98;;;4.00;;
42200;SDS011;27869;51.442;7.540;2022-08-25T08:36:19;14.65;;;4.40;;
42200;SDS011;27869;51.442;7.540;2022-08-25T08:38:47;12.57;;;3.88;;
42200;SDS011;27869;51.442;7.540;2022-08-25T08:41:20;11.05;;;3.67;;
42200;SDS011;27869;51.442;7.540;2022-08-25T08:44:30;10.73;;;3.33;;
42200;SDS011;27869;51.442;7.540;2022-08-25T08:47:08;10.18;;;3.35;;
42200;SDS011;27869;51.442;7.540;2022-08-25T08:49:43;10.45;;;3.38;;
42200;SDS011;27869;51.442;7.540;2022-08-25T08:54:45;11.52;;;3.42;;
42200;SDS011;27869;51.442;7.540;2022-08-25T08:57:21;10.90;;;3.72;;
42200;SDS011;27869;51.442;7.540;2022-08-25T08:59:54;12.75;;;3.10;;
42200;SDS011;27869;51.442;7.540;2022-08-25T09:02:27;10.02;;;3.22;;
42200;SDS011;27869;51.442;7.540;2022-08-25T09:04:59;10.05;;;3.22;;
42200;SDS011;27869;51.442;7.540;2022-08-25T09:07:29;11.60;;;3.15;;
42200;SDS011;27869;51.442;7.540;2022-08-25T09:10:00;12.82;;;3.15;;
42200;SDS011;27869;51.442;7.540;2022-08-25T09:15:04;14.82;;;2.80;;
42200;SDS011;27869;51.442;7.540;2022-08-25T09:17:40;9.63;;;2.97;;
42200;SDS011;27869;51.442;7.540;2022-08-25T09:23:25;10.48;;;3.40;;
42200;SDS011;27869;51.442;7.540;2022-08-25T09:25:59;10.95;;;2.80;;
42200;SDS011;27869;51.442;7.540;2022-08-25T09:28:36;11.50;;;3.28;;
42200;SDS011;27869;51.442;7.540;2022-08-25T09:31:11;9.70;;;3.28;;
42200;SDS011;27869;51.442;7.540;2022-08-25T09:33:42;12.82;;;3.60;;
42200;SDS011;27869;51.442;7.540;2022-08-25T09:36:10;10.30;;;3.30;;
42200;SDS011;27869;51.442;7.540;2022-08-25T09:38:37;9.82;;;3.10;;
42200;SDS011;27869;51.442;7.540;2022-08-25T09:41:04;11.57;;;3.08;;
42200;SDS011;27869;51.442;7.540;2022-08-25T09:43:32;10.77;;;2.72;;
42200;SDS011;27869;51.442;7.540;2022-08-25T09:46:02;10.38;;;3.17;;
42200;SDS011;27869;51.442;7.540;2022-08-25T09:48:41;10.25;;;2.78;;
42200;SDS011;27869;51.442;7.540;2022-08-25T09:51:19;13.05;;;3.53;;
42200;SDS011;27869;51.442;7.540;2022-08-25T09:53:50;10.50;;;3.25;;
42200;SDS011;27869;51.442;7.540;2022-08-25T09:56:20;10.85;;;3.33;;
42200;SDS011;27869;51.442;7.540;2022-08-25T09:58:49;9.88;;;3.08;;
42200;SDS011;27869;51.442;7.540;2022-08-25T10:01:18;8.95;;;2.83;;
42200;SDS011;27869;51.442;7.540;2022-08-25T10:03:53;8.18;;;2.70;;
42200;SDS011;27869;51.442;7.540;2022-08-25T10:06:22;9.45;;;2.85;;
42200;SDS011;27869;51.442;7.540;2022-08-25T10:08:52;10.02;;;2.90;;
42200;SDS011;27869;51.442;7.540;2022-08-25T10:11:30;10.20;;;3.25;;
42200;SDS011;27869;51.442;7.540;2022-08-25T10:14:03;10.20;;;3.40;;
42200;SDS011;27869;51.442;7.540;2022-08-25T10:16:41;10.23;;;3.65;;
42200;SDS011;27869;51.442;7.540;2022-08-25T10:19:09;8.80;;;2.97;;
42200;SDS011;27869;51.442;7.540;2022-08-25T10:21:38;10.50;;;3.00;;
42200;SDS011;27869;51.442;7.540;2022-08-25T10:24:07;10.32;;;3.28;;
42200;SDS011;27869;51.442;7.540;2022-08-25T10:26:37;10.93;;;3.50;;
42200;SDS011;27869;51.442;7.540;2022-08-25T10:29:16;10.77;;;3.45;;
42200;SDS011;27869;51.442;7.540;2022-08-25T10:31:57;13.95;;;3.85;;
42200;SDS011;27869;51.442;7.540;2022-08-25T10:34:38;11.90;;;3.30;;
42200;SDS011;27869;51.442;7.540;2022-08-25T10:37:12;9.65;;;2.97;;
42200;SDS011;27869;51.442;7.540;2022-08-25T10:39:48;11.93;;;3.92;;
42200;SDS011;27869;51.442;7.540;2022-08-25T10:42:27;12.45;;;3.35;;
42200;SDS011;27869;51.442;7.540;2022-08-25T10:45:09;9.70;;;2.90;;
42200;SDS011;27869;51.442;7.540;2022-08-25T10:50:51;9.50;;;2.78;;
42200;SDS011;27869;51.442;7.540;2022-08-25T10:53:25;10.00;;;3.15;;
42200;SDS011;27869;51.442;7.540;2022-08-25T10:55:58;15.60;;;3.13;;
42200;SDS011;27869;51.442;7.540;2022-08-25T10:58:34;10.85;;;3.00;;
42200;SDS011;27869;51.442;7.540;2022-08-25T11:01:18;9.95;;;3.20;;
42200;SDS011;27869;51.442;7.540;2022-08-25T11:03:58;10.00;;;2.80;;
42200;SDS011;27869;51.442;7.540;2022-08-25T11:06:33;11.32;;;2.88;;
42200;SDS011;27869;51.442;7.540;2022-08-25T11:09:05;9.80;;;3.20;;
42200;SDS011;27869;51.442;7.540;2022-08-25T11:11:36;9.30;;;2.90;;
42200;SDS011;27869;51.442;7.540;2022-08-25T11:14:08;10.80;;;2.85;;
42200;SDS011;27869;51.442;7.540;2022-08-25T11:16:38;9.43;;;3.03;;
42200;SDS011;27869;51.442;7.540;2022-08-25T11:19:12;10.30;;;2.83;;
42200;SDS011;27869;51.442;7.540;2022-08-25T11:21:46;12.15;;;3.00;;
42200;SDS011;27869;51.442;7.540;2022-08-25T11:24:28;11.50;;;3.17;;
42200;SDS011;27869;51.442;7.540;2022-08-25T11:27:03;8.00;;;2.72;;
42200;SDS011;27869;51.442;7.540;2022-08-25T11:29:35;10.13;;;3.03;;
42200;SDS011;27869;51.442;7.540;2022-08-25T11:32:05;10.15;;;3.38;;
42200;SDS011;27869;51.442;7.540;2022-08-25T11:34:34;10.10;;;3.40;;
42200;SDS011;27869;51.442;7.540;2022-08-25T11:37:04;11.40;;;3.22;;
42200;SDS011;27869;51.442;7.540;2022-08-25T11:39:54;10.05;;;2.88;;
42200;SDS011;27869;51.442;7.540;2022-08-25T11:42:47;9.75;;;3.00;;
42200;SDS011;27869;51.442;7.540;2022-08-25T11:45:31;9.63;;;2.72;;
42200;SDS011;27869;51.442;7.540;2022-08-25T11:48:17;11.65;;;2.85;;
42200;SDS011;27869;51.442;7.540;2022-08-25T11:50:58;9.57;;;2.80;;
42200;SDS011;27869;51.442;7.540;2022-08-25T11:53:28;10.00;;;2.72;;
42200;SDS011;27869;51.442;7.540;2022-08-25T11:55:57;10.30;;;2.90;;
42200;SDS011;27869;51.442;7.540;2022-08-25T11:58:30;10.10;;;3.17;;
42200;SDS011;27869;51.442;7.540;2022-08-25T12:01:03;9.20;;;2.78;;
42200;SDS011;27869;51.442;7.540;2022-08-25T12:03:49;9.15;;;2.97;;
42200;SDS011;27869;51.442;7.540;2022-08-25T12:06:20;9.48;;;2.95;;
42200;SDS011;27869;51.442;7.540;2022-08-25T12:08:51;10.75;;;2.83;;
42200;SDS011;27869;51.442;7.540;2022-08-25T12:11:46;10.35;;;3.08;;
42200;SDS011;27869;51.442;7.540;2022-08-25T12:17:18;12.38;;;2.80;;
42200;SDS011;27869;51.442;7.540;2022-08-25T12:19:55;11.32;;;3.10;;
42200;SDS011;27869;51.442;7.540;2022-08-25T12:25:30;8.57;;;2.70;;
42200;SDS011;27869;51.442;7.540;2022-08-25T12:28:06;10.93;;;2.90;;
42200;SDS011;27869;51.442;7.540;2022-08-25T12:30:45;7.63;;;2.47;;
42200;SDS011;27869;51.442;7.540;2022-08-25T12:33:21;10.25;;;2.65;;
42200;SDS011;27869;51.442;7.540;2022-08-25T12:35:58;8.90;;;2.67;;
42200;SDS011;27869;51.442;7.540;2022-08-25T12:38:32;9.18;;;2.97;;
42200;SDS011;27869;51.442;7.540;2022-08-25T12:41:05;8.07;;;2.78;;
42200;SDS011;27869;51.442;7.540;2022-08-25T12:43:35;8.18;;;2.72;;
42200;SDS011;27869;51.442;7.540;2022-08-25T12:49:01;8.60;;;2.72;;
42200;SDS011;27869;51.442;7.540;2022-08-25T12:51:47;8.32;;;2.60;;
42200;SDS011;27869;51.442;7.540;2022-08-25T12:54:23;9.82;;;2.53;;
42200;SDS011;27869;51.442;7.540;2022-08-25T12:56:57;13.73;;;2.70;;
42200;SDS011;27869;51.442;7.540;2022-08-25T12:59:31;10.35;;;2.33;;
42200;SDS011;27869;51.442;7.540;2022-08-25T13:08:24;9.07;;;2.60;;
42200;SDS011;27869;51.442;7.540;2022-08-25T13:11:13;9.07;;;2.63;;
42200;SDS011;27869;51.442;7.540;2022-08-25T13:13:46;7.82;;;2.30;;
42200;SDS011;27869;51.442;7.540;2022-08-25T13:16:17;8.18;;;2.50;;
42200;SDS011;27869;51.442;7.540;2022-08-25T13:18:45;7.43;;;2.50;;
42200;SDS011;27869;51.442;7.540;2022-08-25T13:21:14;9.00;;;2.40;;
42200;SDS011;27869;51.442;7.540;2022-08-25T13:23:43;11.30;;;2.75;;
42200;SDS011;27869;51.442;7.540;2022-08-25T13:26:14;7.78;;;2.50;;
42200;SDS011;27869;51.442;7.540;2022-08-25T13:28:49;8.13;;;2.30;;
42200;SDS011;27869;51.442;7.540;2022-08-25T13:31:19;10.27;;;2.83;;
42200;SDS011;27869;51.442;7.540;2022-08-25T13:33:52;9.38;;;2.63;;
42200;SDS011;27869;51.442;7.540;2022-08-25T13:36:20;8.07;;;2.47;;
42200;SDS011;27869;51.442;7.540;2022-08-25T13:39:16;8.10;;;2.40;;
42200;SDS011;27869;51.442;7.540;2022-08-25T13:41:46;9.15;;;2.50;;
42200;SDS011;27869;51.442;7.540;2022-08-25T13:44:15;9.88;;;2.60;;
42200;SDS011;27869;51.442;7.540;2022-08-25T13:46:44;8.20;;;2.40;;
42200;SDS011;27869;51.442;7.540;2022-08-25T13:51:50;9.45;;;2.55;;
42200;SDS011;27869;51.442;7.540;2022-08-25T13:54:22;10.20;;;2.65;;
42200;SDS011;27869;51.442;7.540;2022-08-25T13:56:53;8.65;;;2.60;;
42200;SDS011;27869;51.442;7.540;2022-08-25T13:59:29;9.10;;;2.60;;
42200;SDS011;27869;51.442;7.540;2022-08-25T14:02:02;9.10;;;2.63;;
42200;SDS011;27869;51.442;7.540;2022-08-25T14:07:05;9.50;;;2.75;;
42200;SDS011;27869;51.442;7.540;2022-08-25T14:09:38;10.85;;;2.55;;
42200;SDS011;27869;51.442;7.540;2022-08-25T14:12:07;8.77;;;2.38;;
42200;SDS011;27869;51.442;7.540;2022-08-25T14:14:56;8.77;;;2.55;;
42200;SDS011;27869;51.442;7.540;2022-08-25T14:17:24;9.90;;;2.50;;
42200;SDS011;27869;51.442;7.540;2022-08-25T14:19:51;8.55;;;2.78;;
42200;SDS011;27869;51.442;7.540;2022-08-25T14:22:18;10.32;;;2.90;;
42200;SDS011;27869;51.442;7.540;2022-08-25T14:24:44;15.10;;;2.72;;
42200;SDS011;27869;51.442;7.540;2022-08-25T14:27:13;9.88;;;2.47;;
42200;SDS011;27869;51.442;7.540;2022-08-25T14:32:06;10.77;;;2.85;;
42200;SDS011;27869;51.442;7.540;2022-08-25T14:34:34;9.70;;;2.78;;
42200;SDS011;27869;51.442;7.540;2022-08-25T14:37:05;7.60;;;2.58;;
42200;SDS011;27869;51.442;7.540;2022-08-25T14:39:34;8.90;;;2.70;;
42200;SDS011;27869;51.442;7.540;2022-08-25T14:42:02;8.43;;;2.53;;
42200;SDS011;27869;51.442;7.540;2022-08-25T14:44:30;12.15;;;3.10;;
42200;SDS011;27869;51.442;7.540;2022-08-25T14:49:26;10.48;;;2.65;;
42200;SDS011;27869;51.442;7.540;2022-08-25T14:51:58;9.60;;;2.75;;
42200;SDS011;27869;51.442;7.540;2022-08-25T14:54:29;8.60;;;2.70;;
42200;SDS011;27869;51.442;7.540;2022-08-25T14:56:56;8.32;;;2.72;;
42200;SDS011;27869;51.442;7.540;2022-08-25T14:59:23;10.90;;;2.80;;
42200;SDS011;27869;51.442;7.540;2022-08-25T15:01:52;10.80;;;2.78;;
42200;SDS011;27869;51.442;7.540;2022-08-25T15:04:21;8.57;;;2.88;;
42200;SDS011;27869;51.442;7.540;2022-08-25T15:06:52;8.63;;;2.88;;
42200;SDS011;27869;51.442;7.540;2022-08-25T15:09:22;10.05;;;3.03;;
42200;SDS011;27869;51.442;7.540;2022-08-25T15:11:49;11.43;;;3.10;;
42200;SDS011;27869;51.442;7.540;2022-08-25T15:14:17;9.02;;;2.95;;
42200;SDS011;27869;51.442;7.540;2022-08-25T15:16:46;10.07;;;2.83;;
42200;SDS011;27869;51.442;7.540;2022-08-25T15:19:17;8.30;;;2.80;;
42200;SDS011;27869;51.442;7.540;2022-08-25T15:21:45;11.10;;;2.83;;
42200;SDS011;27869;51.442;7.540;2022-08-25T15:26:43;10.43;;;2.90;;
42200;SDS011;27869;51.442;7.540;2022-08-25T15:29:12;10.95;;;3.28;;
42200;SDS011;27869;51.442;7.540;2022-08-25T15:31:38;9.20;;;2.90;;
42200;SDS011;27869;51.442;7.540;2022-08-25T15:34:05;10.60;;;3.17;;
42200;SDS011;27869;51.442;7.540;2022-08-25T15:36:34;8.73;;;3.10;;
42200;SDS011;27869;51.442;7.540;2022-08-25T15:39:02;11.07;;;2.95;;
42200;SDS011;27869;51.442;7.540;2022-08-25T15:41:30;10.07;;;2.78;;